createdAt,value
2019-03-11T00:00:03.072Z,99.90
2019-03-11T00:02:40.626Z,99.90
2019-03-11T00:05:18.101Z,99.90
2019-03-11T00:07:57.290Z,99.90
2019-03-11T00:10:34.760Z,99.90
2019-03-11T00:13:12.252Z,99.90
2019-03-11T00:15:49.710Z,99.90
2019-03-11T00:18:40.278Z,99.90
2019-03-11T00:21:17.749Z,99.90
2019-03-11T00:23:55.247Z,99.90
2019-03-11T00:26:32.827Z,99.90
2019-03-11T00:29:10.316Z,99.90
2019-03-11T00:31:47.808Z,99.90
2019-03-11T00:34:25.321Z,99.90
2019-03-11T00:37:02.916Z,99.90
2019-03-11T00:39:40.404Z,99.90
2019-03-11T00:42:17.876Z,99.90
2019-03-11T00:44:55.387Z,99.90
2019-03-11T00:47:37.170Z,99.90
2019-03-11T00:50:14.761Z,99.90
2019-03-11T00:52:52.184Z,99.90
2019-03-11T00:55:29.674Z,99.90
2019-03-11T00:58:07.273Z,99.90
2019-03-11T01:00:44.740Z,99.90
2019-03-11T01:03:22.236Z,99.90
2019-03-11T01:05:59.850Z,99.90
2019-03-11T01:08:37.333Z,99.90
2019-03-11T01:11:14.814Z,99.90
2019-03-11T01:13:52.292Z,99.90
2019-03-11T01:16:29.874Z,99.90
2019-03-11T01:19:07.349Z,99.90
2019-03-11T01:21:44.830Z,99.90
2019-03-11T01:24:22.317Z,99.90
2019-03-11T01:27:03.530Z,99.90
2019-03-11T01:29:41.018Z,99.90
2019-03-11T01:32:18.488Z,99.90
2019-03-11T01:34:56.011Z,99.90
2019-03-11T01:37:34.518Z,99.10
2019-03-11T01:40:14.397Z,99.10
2019-03-11T01:42:52.077Z,98.80
2019-03-11T01:45:29.372Z,98.60
2019-03-11T01:48:06.940Z,98.30
2019-03-11T01:50:44.441Z,98.40
2019-03-11T01:53:21.914Z,98.30
2019-03-11T01:56:03.739Z,98.80
2019-03-11T01:58:41.234Z,98.50
2019-03-11T02:01:18.703Z,98.80
2019-03-11T02:03:56.198Z,98.60
2019-03-11T02:06:33.823Z,98.80
2019-03-11T02:09:13.320Z,97.80
2019-03-11T02:11:50.799Z,97.90
2019-03-11T02:14:28.296Z,97.60
2019-03-11T02:17:12.247Z,97.60
2019-03-11T02:19:49.741Z,96.70
2019-03-11T02:22:27.211Z,96.60
2019-03-11T02:25:04.719Z,96.40
2019-03-11T02:27:45.785Z,96.10
2019-03-11T02:30:23.303Z,96.10
2019-03-11T02:33:00.757Z,96.20
2019-03-11T02:35:45.367Z,96.60
2019-03-11T02:38:22.861Z,97.20
2019-03-11T02:41:00.342Z,97.40
2019-03-11T02:43:37.818Z,97.90
2019-03-11T02:46:15.452Z,98.30
2019-03-11T02:48:52.918Z,98.90
2019-03-11T02:51:30.407Z,99.10
2019-03-11T02:54:07.911Z,99.20
2019-03-11T02:56:45.471Z,99.40
2019-03-11T02:59:22.967Z,99.60
2019-03-11T03:02:06.295Z,99.80
2019-03-11T03:04:53.919Z,99.90
2019-03-11T03:07:32.470Z,99.90
2019-03-11T03:10:10.168Z,99.90
2019-03-11T03:12:47.611Z,99.90
2019-03-11T03:15:27.201Z,99.90
2019-03-11T03:18:04.682Z,99.90
2019-03-11T03:20:42.183Z,99.90
2019-03-11T03:23:19.678Z,99.90
2019-03-11T03:25:57.252Z,99.90
2019-03-11T03:28:34.740Z,99.90
2019-03-11T03:31:12.234Z,99.90
2019-03-11T03:33:49.713Z,99.90
2019-03-11T03:36:32.568Z,99.90
2019-03-11T03:39:10.747Z,99.90
2019-03-11T03:41:48.254Z,99.90
2019-03-11T03:44:25.765Z,99.90
2019-03-11T03:47:03.313Z,99.90
2019-03-11T03:49:40.802Z,99.90
2019-03-11T03:52:18.279Z,99.90
2019-03-11T03:54:55.787Z,99.90
2019-03-11T03:57:33.425Z,99.90
2019-03-11T04:00:10.977Z,99.90
2019-03-11T04:02:48.460Z,99.90
2019-03-11T04:05:28.055Z,99.90
2019-03-11T04:08:05.524Z,99.90
2019-03-11T04:10:43.044Z,99.90
2019-03-11T04:13:20.483Z,99.40
2019-03-11T04:15:58.108Z,98.80
2019-03-11T04:18:57.655Z,98.80
2019-03-11T04:21:35.164Z,98.70
2019-03-11T04:24:12.627Z,98.60
2019-03-11T04:26:58.194Z,98.60
2019-03-11T04:29:35.669Z,98.30
2019-03-11T04:32:13.169Z,98.20
2019-03-11T04:34:50.709Z,98.40
2019-03-11T04:37:32.400Z,98.30
2019-03-11T04:40:11.254Z,98.50
2019-03-11T04:42:48.729Z,98.50
2019-03-11T04:45:26.339Z,98.50
2019-03-11T04:48:03.805Z,98.40
2019-03-11T04:50:41.290Z,98.40
2019-03-11T04:53:18.759Z,98.70
2019-03-11T04:56:03.560Z,98.90
2019-03-11T04:58:41.046Z,99.00
2019-03-11T05:01:18.551Z,99.20
2019-03-11T05:03:56.022Z,99.20
2019-03-11T05:06:33.664Z,98.90
2019-03-11T05:09:11.125Z,98.80
2019-03-11T05:11:51.165Z,98.60
2019-03-11T05:14:28.633Z,98.40
2019-03-11T05:17:08.202Z,98.30
2019-03-11T05:19:45.809Z,98.10
2019-03-11T05:22:23.320Z,98.10
2019-03-11T05:25:04.459Z,97.80
2019-03-11T05:27:41.988Z,97.60
2019-03-11T05:30:19.810Z,97.40
2019-03-11T05:32:57.280Z,97.40
2019-03-11T05:35:34.858Z,97.00
2019-03-11T05:38:12.343Z,96.80
2019-03-11T05:40:49.935Z,96.20
2019-03-11T05:43:27.294Z,95.60
2019-03-11T05:46:08.438Z,94.80
2019-03-11T05:48:45.931Z,94.50
2019-03-11T05:51:31.060Z,94.30
2019-03-11T05:54:00.931Z,94.20
2019-03-11T05:56:44.608Z,94.00
2019-03-11T05:59:22.084Z,93.80
2019-03-11T06:01:59.570Z,94.00
2019-03-11T06:04:37.042Z,93.90
2019-03-11T06:07:14.563Z,93.70
2019-03-11T06:09:52.043Z,94.00
2019-03-11T06:12:29.558Z,94.30
2019-03-11T06:15:07.906Z,95.70
2019-03-11T06:17:45.507Z,97.70
2019-03-11T06:20:34.603Z,99.90
2019-03-11T06:23:12.821Z,99.90
2019-03-11T06:25:50.574Z,99.90
2019-03-11T06:28:28.048Z,99.90
2019-03-11T06:31:05.553Z,99.90
2019-03-11T06:33:43.048Z,99.90
2019-03-11T06:36:27.854Z,99.90
2019-03-11T06:39:06.365Z,99.90
2019-03-11T06:41:43.699Z,99.90
2019-03-11T06:44:21.182Z,99.90
2019-03-11T06:46:58.680Z,99.90
2019-03-11T06:49:36.174Z,99.90
2019-03-11T06:52:13.701Z,99.90
2019-03-11T06:54:58.277Z,99.90
2019-03-11T06:57:35.777Z,99.90
2019-03-11T07:00:15.785Z,99.90
2019-03-11T07:02:53.279Z,99.90
2019-03-11T07:05:34.912Z,99.90
2019-03-11T07:08:12.401Z,99.90
2019-03-11T07:10:50.174Z,99.90
2019-03-11T07:13:27.694Z,99.90
2019-03-11T07:16:05.284Z,99.90
2019-03-11T07:18:42.783Z,99.90
2019-03-11T07:21:20.278Z,99.90
2019-03-11T07:23:57.786Z,99.90
2019-03-11T07:26:38.739Z,99.90
2019-03-11T07:29:16.239Z,99.90
2019-03-11T07:31:53.755Z,99.90
2019-03-11T07:34:31.318Z,99.90
2019-03-11T07:37:08.875Z,99.90
2019-03-11T07:39:46.271Z,99.90
2019-03-11T07:42:23.775Z,99.90
2019-03-11T07:45:01.361Z,99.90
2019-03-11T07:47:38.844Z,99.90
2019-03-11T07:50:16.343Z,99.90
2019-03-11T07:52:53.827Z,99.90
2019-03-11T07:55:41.565Z,99.90
2019-03-11T07:58:19.089Z,99.90
2019-03-11T08:00:56.568Z,99.90
2019-03-11T08:03:34.080Z,99.90
2019-03-11T08:06:29.941Z,99.90
2019-03-11T08:09:08.441Z,99.90
2019-03-11T08:11:45.946Z,99.30
2019-03-11T08:14:51.642Z,98.60
2019-03-11T08:17:29.194Z,99.10
2019-03-11T08:20:06.867Z,98.30
2019-03-11T08:22:44.365Z,98.70
2019-03-11T08:25:28.155Z,97.90
2019-03-11T08:28:05.710Z,97.50
2019-03-11T08:30:43.186Z,97.10
2019-03-11T08:33:20.697Z,97.90
2019-03-11T08:36:01.435Z,97.10
2019-03-11T08:38:38.963Z,96.20
2019-03-11T08:41:16.425Z,96.60
2019-03-11T08:43:53.942Z,95.60
2019-03-11T08:46:31.427Z,94.00
2019-03-11T08:49:08.919Z,92.10
2019-03-11T08:51:46.397Z,89.70
2019-03-11T08:54:30.691Z,88.70
2019-03-11T08:57:08.181Z,88.70
2019-03-11T08:59:45.667Z,84.60
2019-03-11T09:02:23.171Z,82.70
2019-03-11T09:05:00.778Z,84.20
2019-03-11T09:07:38.299Z,84.70
2019-03-11T09:10:16.467Z,84.80
2019-03-11T09:12:53.960Z,83.80
2019-03-11T09:15:31.530Z,81.60
2019-03-11T09:18:09.043Z,82.00
2019-03-11T09:20:46.517Z,80.70
2019-03-11T09:23:24.018Z,78.50
2019-03-11T09:26:01.592Z,80.60
2019-03-11T09:28:39.077Z,82.10
2019-03-11T09:31:16.575Z,84.60
2019-03-11T09:33:54.057Z,84.10
2019-03-11T09:36:31.559Z,89.70
2019-03-11T09:39:11.925Z,89.70
2019-03-11T09:41:49.413Z,91.20
2019-03-11T09:44:27.044Z,91.70
2019-03-11T09:47:04.531Z,93.40
2019-03-11T09:49:42.042Z,90.50
2019-03-11T09:52:19.548Z,90.40
2019-03-11T09:55:03.314Z,85.10
2019-03-11T09:57:40.829Z,84.00
2019-03-11T10:00:23.539Z,83.80
2019-03-11T10:03:01.081Z,78.70
2019-03-11T10:05:42.128Z,75.10
2019-03-11T10:08:19.631Z,73.50
2019-03-11T10:10:57.111Z,71.10
2019-03-11T10:13:34.606Z,70.80
2019-03-11T10:16:12.069Z,70.80
2019-03-11T10:18:50.378Z,71.10
2019-03-11T10:21:27.250Z,71.90
2019-03-11T10:24:04.905Z,73.20
2019-03-11T10:26:42.388Z,74.30
2019-03-11T10:29:19.896Z,75.00
2019-03-11T10:31:57.375Z,74.50
2019-03-11T10:34:36.994Z,74.20
2019-03-11T10:37:14.452Z,75.50
2019-03-11T10:39:51.936Z,74.20
2019-03-11T10:42:29.412Z,75.80
2019-03-11T10:45:10.509Z,76.20
2019-03-11T10:47:48.028Z,75.10
2019-03-11T10:50:25.493Z,75.40
2019-03-11T10:53:02.996Z,74.00
2019-03-11T10:55:50.621Z,73.70
2019-03-11T10:58:29.154Z,73.40
2019-03-11T11:01:05.569Z,73.70
2019-03-11T11:03:49.488Z,75.70
2019-03-11T11:06:26.978Z,75.80
2019-03-11T11:09:04.866Z,76.50
2019-03-11T11:11:42.335Z,77.60
2019-03-11T11:14:19.941Z,77.20
2019-03-11T11:16:57.403Z,79.30
2019-03-11T11:19:34.905Z,78.10
2019-03-11T11:22:14.101Z,77.50
2019-03-11T11:25:03.440Z,77.10
2019-03-11T11:27:40.917Z,79.60
2019-03-11T11:30:21.634Z,78.50
2019-03-11T11:32:59.120Z,76.00
2019-03-11T11:35:40.070Z,75.40
2019-03-11T11:38:17.593Z,72.00
2019-03-11T11:40:55.104Z,70.10
2019-03-11T11:43:46.125Z,69.50
2019-03-11T11:46:23.603Z,69.50
2019-03-11T11:49:01.103Z,73.40
2019-03-11T11:51:38.606Z,70.60
2019-03-11T11:54:16.228Z,70.80
2019-03-11T11:56:53.702Z,68.20
2019-03-11T11:59:31.207Z,66.60
2019-03-11T12:02:08.700Z,64.00
2019-03-11T12:04:53.053Z,65.80
2019-03-11T12:07:30.601Z,69.70
2019-03-11T12:10:08.380Z,72.10
2019-03-11T12:12:45.853Z,71.80
2019-03-11T12:15:24.401Z,70.50
2019-03-11T12:18:01.873Z,70.10
2019-03-11T12:20:39.371Z,70.80
2019-03-11T12:23:16.850Z,71.00
2019-03-11T12:25:54.366Z,73.00
2019-03-11T12:28:31.831Z,71.60
2019-03-11T12:31:09.363Z,71.30
2019-03-11T12:33:46.951Z,73.40
2019-03-11T12:36:24.448Z,73.10
2019-03-11T12:39:01.919Z,71.10
2019-03-11T12:41:39.421Z,72.10
2019-03-11T12:44:17.000Z,71.10
2019-03-11T12:46:54.511Z,71.70
2019-03-11T12:49:31.990Z,69.90
2019-03-11T12:52:09.481Z,69.60
2019-03-11T12:54:47.073Z,70.60
2019-03-11T12:57:24.575Z,70.60
2019-03-11T13:00:02.075Z,71.00
2019-03-11T13:02:39.564Z,72.50
2019-03-11T13:05:17.177Z,70.80
2019-03-11T13:07:54.695Z,69.90
2019-03-11T13:10:32.221Z,66.10
2019-03-11T13:13:26.625Z,65.50
2019-03-11T13:16:04.132Z,68.60
2019-03-11T13:18:48.729Z,66.80
2019-03-11T13:21:35.030Z,65.00
2019-03-11T13:24:19.315Z,66.20
2019-03-11T13:26:56.807Z,67.80
2019-03-11T13:29:34.291Z,64.00
2019-03-11T13:32:11.782Z,63.30
2019-03-11T13:34:56.535Z,63.30
2019-03-11T13:37:34.056Z,62.20
2019-03-11T13:40:11.707Z,63.10
2019-03-11T13:42:49.231Z,64.00
2019-03-11T13:45:26.703Z,66.90
2019-03-11T13:48:04.215Z,67.60
2019-03-11T13:50:41.712Z,69.90
2019-03-11T13:53:19.295Z,71.30
2019-03-11T13:55:56.786Z,73.70
2019-03-11T13:58:34.277Z,74.30
2019-03-11T14:01:11.768Z,72.70
2019-03-11T14:04:10.574Z,74.00
2019-03-11T14:06:48.087Z,71.20
2019-03-11T14:09:25.546Z,66.50
2019-03-11T14:12:03.050Z,62.30
2019-03-11T14:14:40.627Z,63.70
2019-03-11T14:17:18.115Z,64.30
2019-03-11T14:19:55.599Z,66.70
2019-03-11T14:22:33.095Z,68.40
2019-03-11T14:25:10.625Z,72.10
2019-03-11T14:27:48.097Z,74.70
2019-03-11T14:30:25.571Z,74.50
2019-03-11T14:33:03.206Z,75.10
2019-03-11T14:35:40.667Z,70.90
2019-03-11T14:38:18.159Z,65.80
2019-03-11T14:40:55.644Z,61.30
2019-03-11T14:43:33.272Z,61.20
2019-03-11T14:46:10.750Z,61.50
2019-03-11T14:48:48.259Z,60.40
2019-03-11T14:51:25.718Z,59.90
2019-03-11T14:54:03.328Z,59.20
2019-03-11T14:56:40.816Z,57.10
2019-03-11T14:59:18.280Z,56.90
2019-03-11T15:01:55.789Z,60.50
2019-03-11T15:04:33.382Z,65.90
2019-03-11T15:07:10.900Z,67.60
2019-03-11T15:09:51.625Z,67.40
2019-03-11T15:12:25.881Z,66.90
2019-03-11T15:15:03.351Z,66.60
2019-03-11T15:17:40.849Z,68.40
2019-03-11T15:20:18.511Z,69.30
2019-03-11T15:23:20.815Z,71.70
2019-03-11T15:25:55.224Z,71.90
2019-03-11T15:28:32.707Z,73.50
2019-03-11T15:31:11.006Z,75.10
2019-03-11T15:33:49.451Z,75.70
2019-03-11T15:36:33.177Z,76.00
2019-03-11T15:39:02.810Z,76.70
2019-03-11T15:41:40.287Z,78.70
2019-03-11T15:44:17.908Z,79.50
2019-03-11T15:46:56.566Z,80.30
2019-03-11T15:49:32.893Z,80.60
2019-03-11T15:52:10.385Z,83.60
2019-03-11T15:54:51.104Z,90.10
2019-03-11T15:57:38.466Z,93.10
2019-03-11T16:00:06.562Z,94.90
2019-03-11T16:02:47.377Z,97.00
2019-03-11T16:05:24.873Z,97.90
2019-03-11T16:08:02.401Z,97.30
2019-03-11T16:10:39.871Z,98.60
2019-03-11T16:13:18.475Z,99.60
2019-03-11T16:15:55.951Z,99.90
2019-03-11T16:18:33.452Z,99.90
2019-03-11T16:21:10.914Z,99.90
2019-03-11T16:23:52.947Z,99.90
2019-03-11T16:26:30.435Z,99.90
2019-03-11T16:29:07.935Z,99.90
2019-03-11T16:31:45.418Z,99.90
2019-03-11T16:34:23.025Z,99.90
2019-03-11T16:37:00.486Z,99.90
2019-03-11T16:39:38.025Z,99.90
2019-03-11T16:42:15.506Z,99.90
2019-03-11T16:44:52.992Z,99.90
2019-03-11T16:47:30.503Z,99.90
2019-03-11T16:50:09.044Z,99.90
2019-03-11T16:52:48.669Z,99.90
2019-03-11T16:55:28.435Z,99.90
2019-03-11T16:58:05.941Z,99.90
2019-03-11T17:00:43.623Z,99.90
2019-03-11T17:03:21.173Z,99.90
2019-03-11T17:05:58.642Z,99.90
2019-03-11T17:08:36.166Z,99.90
2019-03-11T17:11:13.640Z,99.90
2019-03-11T17:13:51.238Z,99.90
2019-03-11T17:16:28.717Z,99.90
2019-03-11T17:19:06.214Z,99.90
2019-03-11T17:21:43.835Z,99.90
2019-03-11T17:24:21.410Z,99.90
2019-03-11T17:26:58.884Z,99.90
2019-03-11T17:29:36.389Z,99.90
2019-03-11T17:32:13.954Z,99.90
2019-03-11T17:34:51.452Z,99.90
2019-03-11T17:37:28.911Z,99.90
2019-03-11T17:40:06.566Z,99.90
2019-03-11T17:42:47.294Z,99.90
2019-03-11T17:45:24.789Z,99.90
2019-03-11T17:48:02.247Z,99.90
2019-03-11T17:50:39.736Z,99.90
2019-03-11T17:53:33.664Z,99.90
2019-03-11T17:56:11.118Z,99.90
2019-03-11T17:58:48.630Z,99.90
2019-03-11T18:01:26.108Z,99.90
2019-03-11T18:04:05.671Z,99.90
2019-03-11T18:06:43.171Z,99.90
2019-03-11T18:09:20.661Z,99.90
2019-03-11T18:11:58.240Z,99.90
2019-03-11T18:14:35.759Z,99.90
2019-03-11T18:17:13.226Z,99.90
2019-03-11T18:19:50.718Z,99.90
2019-03-11T18:22:28.294Z,99.90
2019-03-11T18:25:05.791Z,99.90
2019-03-11T18:27:43.287Z,99.90
2019-03-11T18:30:24.230Z,99.90
2019-03-11T18:33:08.635Z,99.90
2019-03-11T18:35:46.106Z,99.90
2019-03-11T18:38:23.585Z,99.90
2019-03-11T18:41:01.083Z,99.90
2019-03-11T18:43:43.019Z,99.90
2019-03-11T18:46:16.225Z,99.90
2019-03-11T18:48:54.054Z,99.90
2019-03-11T18:51:31.559Z,99.90
2019-03-11T18:54:09.044Z,99.90
2019-03-11T18:56:46.521Z,99.90
2019-03-11T18:59:26.156Z,99.90
2019-03-11T19:02:10.275Z,99.90
2019-03-11T19:04:47.723Z,99.90
2019-03-11T19:07:25.263Z,99.90
2019-03-11T19:10:02.731Z,99.90
2019-03-11T19:12:40.337Z,99.90
2019-03-11T19:15:18.814Z,99.90
2019-03-11T19:17:56.222Z,99.90
2019-03-11T19:20:33.667Z,99.90
2019-03-11T19:23:11.182Z,99.90
2019-03-11T19:25:48.677Z,99.90
2019-03-11T19:28:26.131Z,99.90
2019-03-11T19:31:03.622Z,99.90
2019-03-11T19:33:48.119Z,99.90
2019-03-11T19:36:25.613Z,99.90
2019-03-11T19:39:03.110Z,99.90
2019-03-11T19:41:40.711Z,99.90
2019-03-11T19:44:18.195Z,99.90
2019-03-11T19:46:55.668Z,99.90
2019-03-11T19:49:33.182Z,99.90
2019-03-11T19:52:14.287Z,99.90
2019-03-11T19:54:51.736Z,99.90
2019-03-11T19:57:29.214Z,99.90
2019-03-11T20:00:06.900Z,99.90
2019-03-11T20:02:49.498Z,99.90
2019-03-11T20:05:27.750Z,99.90
2019-03-11T20:08:05.239Z,99.90
2019-03-11T20:10:42.693Z,99.90
2019-03-11T20:13:22.280Z,99.90
2019-03-11T20:15:59.795Z,99.90
2019-03-11T20:18:37.231Z,99.90
2019-03-11T20:21:14.754Z,99.90
2019-03-11T20:23:52.219Z,99.90
2019-03-11T20:26:29.726Z,99.90
2019-03-11T20:29:07.165Z,99.90
2019-03-11T20:31:54.665Z,99.90
2019-03-11T20:34:32.239Z,99.90
2019-03-11T20:37:09.608Z,99.90
2019-03-11T20:39:47.086Z,99.90
2019-03-11T20:42:34.001Z,99.90
2019-03-11T20:45:09.679Z,99.90
2019-03-11T20:47:47.156Z,99.90
2019-03-11T20:50:24.642Z,99.90
2019-03-11T20:53:05.427Z,99.90
2019-03-11T20:55:40.705Z,99.90
2019-03-11T20:58:18.181Z,99.90
2019-03-11T21:00:55.680Z,99.90
2019-03-11T21:03:33.246Z,99.90
2019-03-11T21:06:11.001Z,99.90
2019-03-11T21:08:48.529Z,99.90
2019-03-11T21:11:26.025Z,99.90
2019-03-11T21:14:03.557Z,99.90
2019-03-11T21:16:41.007Z,99.90
2019-03-11T21:19:18.501Z,99.90
2019-03-11T21:21:56.110Z,99.90
2019-03-11T21:24:33.595Z,99.90
2019-03-11T21:27:11.129Z,99.90
2019-03-11T21:29:48.558Z,99.90
2019-03-11T21:32:29.356Z,99.90
2019-03-11T21:35:07.204Z,99.90
2019-03-11T21:37:44.646Z,99.90
2019-03-11T21:40:22.205Z,99.90
2019-03-11T21:43:00.723Z,99.90
2019-03-11T21:45:38.220Z,99.90
2019-03-11T21:48:15.757Z,99.90
2019-03-11T21:50:53.279Z,99.90
2019-03-11T21:53:30.758Z,99.90
2019-03-11T21:56:08.176Z,99.90
2019-03-11T21:58:45.728Z,99.90
2019-03-11T22:01:26.348Z,99.90
2019-03-11T22:04:03.819Z,99.90
2019-03-11T22:06:41.351Z,99.90
2019-03-11T22:09:18.822Z,99.90
2019-03-11T22:11:56.414Z,99.90
2019-03-11T22:14:33.888Z,99.90
2019-03-11T22:17:11.381Z,99.90
2019-03-11T22:19:48.921Z,99.90
2019-03-11T22:22:26.429Z,99.90
2019-03-11T22:25:03.905Z,99.90
2019-03-11T22:27:41.397Z,99.90
2019-03-11T22:30:21.074Z,99.90
2019-03-11T22:32:59.595Z,99.90
2019-03-11T22:35:37.091Z,99.90
2019-03-11T22:38:14.567Z,99.90
2019-03-11T22:40:55.586Z,99.90
2019-03-11T22:43:34.320Z,99.90
2019-03-11T22:46:10.552Z,99.90
2019-03-11T22:48:48.022Z,99.90
2019-03-11T22:51:35.073Z,99.90
2019-03-11T22:54:12.543Z,99.90
2019-03-11T22:56:50.310Z,99.90
2019-03-11T22:59:27.798Z,99.90
2019-03-11T23:02:05.351Z,99.90
2019-03-11T23:04:42.810Z,99.90
2019-03-11T23:07:20.353Z,99.90
2019-03-11T23:09:57.825Z,99.90
2019-03-11T23:12:35.425Z,99.90
2019-03-11T23:15:12.885Z,99.90
2019-03-11T23:17:50.384Z,99.90
2019-03-11T23:20:27.869Z,99.90
2019-03-11T23:23:05.345Z,99.90
2019-03-11T23:25:42.862Z,99.90
2019-03-11T23:28:20.375Z,99.90
2019-03-11T23:30:57.948Z,99.90
2019-03-11T23:33:35.407Z,99.90
2019-03-11T23:36:12.926Z,99.90
2019-03-11T23:38:50.665Z,99.90
2019-03-11T23:41:34.397Z,99.90
2019-03-11T23:44:11.874Z,99.90
2019-03-11T23:46:49.382Z,99.90
2019-03-11T23:49:26.870Z,99.90
2019-03-11T23:52:10.594Z,99.90
2019-03-11T23:54:48.068Z,99.90
2019-03-11T23:57:25.578Z,99.90
